createdAt,value
2023-05-06T00:00:22.451Z,4.30
2023-05-06T00:03:44.381Z,3.70
2023-05-06T00:07:06.389Z,4.00
2023-05-06T00:10:30.286Z,7.68
2023-05-06T00:13:54.736Z,4.35
2023-05-06T00:17:18.708Z,4.38
2023-05-06T00:20:40.510Z,5.03
2023-05-06T00:24:02.159Z,4.10
2023-05-06T00:27:26.339Z,4.82
2023-05-06T00:30:47.937Z,3.65
2023-05-06T00:34:14.877Z,4.78
2023-05-06T00:37:36.952Z,4.70
2023-05-06T00:40:58.661Z,6.57
2023-05-06T00:44:20.306Z,3.78
2023-05-06T00:47:42.315Z,3.03
2023-05-06T00:51:04.672Z,3.58
2023-05-06T00:54:26.948Z,3.08
2023-05-06T00:57:53.891Z,4.32
2023-05-06T01:01:18.601Z,4.82
2023-05-06T01:04:43.267Z,7.00
2023-05-06T01:08:24.644Z,7.22
2023-05-06T01:11:51.793Z,3.63
2023-05-06T01:15:25.279Z,3.83
2023-05-06T01:18:50.775Z,3.92
2023-05-06T01:22:20.768Z,6.90
2023-05-06T01:25:45.080Z,3.53
2023-05-06T01:29:08.874Z,5.80
2023-05-06T01:32:51.015Z,5.22
2023-05-06T01:36:37.058Z,5.25
2023-05-06T01:40:00.820Z,6.65
2023-05-06T01:43:26.544Z,5.95
2023-05-06T01:46:49.373Z,4.15
2023-05-06T01:50:11.455Z,4.18
2023-05-06T01:53:35.984Z,5.38
2023-05-06T01:56:57.627Z,5.13
2023-05-06T02:00:19.251Z,4.85
2023-05-06T02:03:43.128Z,3.50
2023-05-06T02:07:07.265Z,5.57
2023-05-06T02:10:29.012Z,4.93
2023-05-06T02:13:50.612Z,4.78
2023-05-06T02:17:12.499Z,5.05
2023-05-06T02:20:34.153Z,5.28
2023-05-06T02:23:55.806Z,4.22
2023-05-06T02:27:17.398Z,5.25
2023-05-06T02:30:39.065Z,5.78
2023-05-06T02:34:00.695Z,4.35
2023-05-06T02:37:22.426Z,4.25
2023-05-06T02:40:44.025Z,5.75
2023-05-06T02:44:06.206Z,4.10
2023-05-06T02:47:30.590Z,4.05
2023-05-06T02:50:54.805Z,4.85
2023-05-06T02:54:18.757Z,8.60
2023-05-06T02:57:40.430Z,25.88
2023-05-06T03:01:02.011Z,19.63
2023-05-06T03:04:23.747Z,6.78
2023-05-06T03:07:47.723Z,7.38
2023-05-06T03:11:09.374Z,7.22
2023-05-06T03:14:31.760Z,3.67
2023-05-06T03:17:53.692Z,6.65
2023-05-06T03:21:15.441Z,4.82
2023-05-06T03:24:37.167Z,4.50
2023-05-06T03:27:58.764Z,5.30
2023-05-06T03:31:20.412Z,3.30
2023-05-06T03:34:41.998Z,7.80
2023-05-06T03:38:03.661Z,4.05
2023-05-06T03:41:25.770Z,4.57
2023-05-06T03:44:47.453Z,4.82
2023-05-06T03:48:13.750Z,9.05
2023-05-06T03:51:37.787Z,4.25
2023-05-06T03:54:59.410Z,4.57
2023-05-06T03:58:21.482Z,3.97
2023-05-06T04:01:47.931Z,3.58
2023-05-06T04:05:12.293Z,5.25
2023-05-06T04:08:34.063Z,3.65
2023-05-06T04:11:55.970Z,4.95
2023-05-06T04:15:17.650Z,4.90
2023-05-06T04:18:41.778Z,5.95
2023-05-06T04:22:03.434Z,3.58
2023-05-06T04:25:25.137Z,5.30
2023-05-06T04:28:49.088Z,5.25
2023-05-06T04:32:13.705Z,5.10
2023-05-06T04:35:35.569Z,3.33
2023-05-06T04:38:59.456Z,4.40
2023-05-06T04:42:21.358Z,4.85
2023-05-06T04:45:55.386Z,3.90
2023-05-06T04:49:17.018Z,3.80
2023-05-06T04:52:38.642Z,4.13
2023-05-06T04:56:00.243Z,3.80
2023-05-06T04:59:24.214Z,3.30
2023-05-06T05:02:48.099Z,3.35
2023-05-06T05:06:10.121Z,4.13
2023-05-06T05:09:31.726Z,4.20
2023-05-06T05:12:53.472Z,4.28
2023-05-06T05:16:15.172Z,5.60
2023-05-06T05:19:39.277Z,4.43
2023-05-06T05:23:00.827Z,3.95
2023-05-06T05:26:22.484Z,4.13
2023-05-06T05:29:44.079Z,5.03
2023-05-06T05:33:08.172Z,4.40
2023-05-06T05:36:29.816Z,3.65
2023-05-06T05:39:53.534Z,5.22
2023-05-06T05:43:17.723Z,4.85
2023-05-06T05:46:43.996Z,4.50
2023-05-06T05:50:06.936Z,3.72
2023-05-06T05:53:28.848Z,4.78
2023-05-06T05:56:50.649Z,3.90
2023-05-06T06:00:13.562Z,6.07
2023-05-06T06:03:35.507Z,5.53
2023-05-06T06:07:01.893Z,4.10
2023-05-06T06:10:23.497Z,3.75
2023-05-06T06:13:45.124Z,4.25
2023-05-06T06:17:07.146Z,3.42
2023-05-06T06:20:28.968Z,3.55
2023-05-06T06:23:52.751Z,5.15
2023-05-06T06:27:14.344Z,3.78
2023-05-06T06:30:35.898Z,3.60
2023-05-06T06:33:57.516Z,4.28
2023-05-06T06:37:19.163Z,3.72
2023-05-06T06:40:40.906Z,4.13
2023-05-06T06:44:04.992Z,4.68
2023-05-06T06:47:28.691Z,4.95
2023-05-06T06:50:50.580Z,3.28
2023-05-06T06:54:12.185Z,5.93
2023-05-06T06:57:33.747Z,6.72
2023-05-06T07:00:55.380Z,8.35
2023-05-06T07:04:17.011Z,3.80
2023-05-06T07:07:38.706Z,5.70
2023-05-06T07:11:02.663Z,4.03
2023-05-06T07:14:25.823Z,5.32
2023-05-06T07:17:47.614Z,3.33
2023-05-06T07:21:09.394Z,3.38
2023-05-06T07:24:33.310Z,3.85
2023-05-06T07:27:54.983Z,3.60
2023-05-06T07:31:21.098Z,3.60
2023-05-06T07:34:42.786Z,3.22
2023-05-06T07:38:04.408Z,3.58
2023-05-06T07:41:26.452Z,3.60
2023-05-06T07:44:48.021Z,3.00
2023-05-06T07:48:09.960Z,3.70
2023-05-06T07:51:34.282Z,3.45
2023-05-06T07:54:55.981Z,4.05
2023-05-06T07:58:22.784Z,3.10
2023-05-06T08:01:44.416Z,3.55
2023-05-06T08:05:11.904Z,3.28
2023-05-06T08:08:36.533Z,3.63
2023-05-06T08:12:00.459Z,3.58
2023-05-06T08:15:22.065Z,3.20
2023-05-06T08:18:43.712Z,6.63
2023-05-06T08:22:10.253Z,6.35
2023-05-06T08:25:34.330Z,3.08
2023-05-06T08:28:57.742Z,3.30
2023-05-06T08:32:19.513Z,2.85
2023-05-06T08:35:41.146Z,3.72
2023-05-06T08:39:02.906Z,4.22
2023-05-06T08:42:30.306Z,5.40
2023-05-06T08:45:51.955Z,4.72
2023-05-06T08:49:16.547Z,3.35
2023-05-06T08:52:43.619Z,4.18
2023-05-06T08:56:11.630Z,4.82
2023-05-06T08:59:34.254Z,3.45
2023-05-06T09:03:01.777Z,3.03
2023-05-06T09:06:24.195Z,4.65
2023-05-06T09:09:50.446Z,2.53
2023-05-06T09:13:17.039Z,3.53
2023-05-06T09:16:42.699Z,5.07
2023-05-06T09:20:09.496Z,3.10
2023-05-06T09:23:33.712Z,2.90
2023-05-06T09:26:56.950Z,3.67
2023-05-06T09:30:21.097Z,3.55
2023-05-06T09:33:47.469Z,3.00
2023-05-06T09:37:16.091Z,4.85
2023-05-06T09:40:38.575Z,2.95
2023-05-06T09:44:00.436Z,2.72
2023-05-06T09:47:24.086Z,1.88
2023-05-06T09:50:48.189Z,3.55
2023-05-06T09:54:10.342Z,5.10
2023-05-06T09:57:35.241Z,3.00
2023-05-06T10:00:57.293Z,3.55
2023-05-06T10:04:26.305Z,2.38
2023-05-06T10:07:49.807Z,2.80
2023-05-06T10:11:11.898Z,2.30
2023-05-06T10:14:33.464Z,2.28
2023-05-06T10:17:58.097Z,2.58
2023-05-06T10:21:24.271Z,3.45
2023-05-06T10:24:58.807Z,2.20
2023-05-06T10:28:31.558Z,3.08
2023-05-06T10:32:02.089Z,2.58
2023-05-06T10:35:44.493Z,2.53
2023-05-06T10:39:10.240Z,2.17
2023-05-06T10:42:38.040Z,2.00
2023-05-06T10:49:39.136Z,2.45
2023-05-06T10:53:03.163Z,2.92
2023-05-06T10:56:29.436Z,2.15
2023-05-06T10:59:54.836Z,1.85
2023-05-06T11:03:18.915Z,1.65
2023-05-06T11:06:44.789Z,1.85
2023-05-06T11:10:10.567Z,2.53
2023-05-06T11:13:35.376Z,2.92
2023-05-06T11:17:02.188Z,2.00
2023-05-06T11:20:26.997Z,3.13
2023-05-06T11:23:54.383Z,2.60
2023-05-06T11:27:21.575Z,2.10
2023-05-06T11:30:54.161Z,2.58
2023-05-06T11:34:28.855Z,2.08
2023-05-06T11:37:52.216Z,3.50
2023-05-06T11:41:15.258Z,2.25
2023-05-06T11:44:38.683Z,2.50
2023-05-06T11:48:00.268Z,4.38
2023-05-06T11:51:22.999Z,6.70
2023-05-06T11:54:44.605Z,4.63
2023-05-06T11:58:06.182Z,4.30
2023-05-06T12:01:30.108Z,2.90
2023-05-06T12:04:54.141Z,2.72
2023-05-06T12:08:27.562Z,2.55
2023-05-06T12:11:50.518Z,2.78
2023-05-06T12:15:14.710Z,2.40
2023-05-06T12:18:38.656Z,1.95
2023-05-06T12:22:22.023Z,3.50
2023-05-06T12:25:49.098Z,4.90
2023-05-06T12:29:12.848Z,2.70
2023-05-06T12:32:56.489Z,3.90
2023-05-06T12:36:19.461Z,2.42
2023-05-06T12:39:45.840Z,2.72
2023-05-06T12:43:08.289Z,2.45
2023-05-06T12:46:29.998Z,1.83
2023-05-06T12:49:52.582Z,1.90
2023-05-06T12:53:30.063Z,3.50
2023-05-06T12:56:54.078Z,2.28
2023-05-06T13:00:18.933Z,4.72
2023-05-06T13:03:43.016Z,3.92
2023-05-06T13:07:04.833Z,9.88
2023-05-06T13:10:31.314Z,2.70
2023-05-06T13:13:52.948Z,2.55
2023-05-06T13:17:14.742Z,2.22
2023-05-06T13:20:36.689Z,4.07
2023-05-06T13:23:58.679Z,2.28
2023-05-06T13:27:20.247Z,3.50
2023-05-06T13:30:44.727Z,3.65
2023-05-06T13:34:11.126Z,2.20
2023-05-06T13:37:35.188Z,3.53
2023-05-06T13:40:56.757Z,5.40
2023-05-06T13:44:19.457Z,2.72
2023-05-06T13:47:43.041Z,2.88
2023-05-06T13:51:07.654Z,2.33
2023-05-06T13:54:29.237Z,1.98
2023-05-06T13:57:53.061Z,2.97
2023-05-06T14:01:14.669Z,3.25
2023-05-06T14:04:36.463Z,4.53
2023-05-06T14:08:05.407Z,5.65
2023-05-06T14:11:26.999Z,3.53
2023-05-06T14:14:48.544Z,3.22
2023-05-06T14:18:10.275Z,2.45
2023-05-06T14:21:34.593Z,2.67
2023-05-06T14:24:56.209Z,3.92
2023-05-06T14:28:23.470Z,2.65
2023-05-06T14:31:47.298Z,2.30
2023-05-06T14:35:09.749Z,2.30
2023-05-06T14:38:31.591Z,6.30
2023-05-06T14:41:55.587Z,2.72
2023-05-06T14:45:19.655Z,1.90
2023-05-06T14:48:41.633Z,2.55
2023-05-06T14:52:03.317Z,3.00
2023-05-06T14:55:25.146Z,2.33
2023-05-06T14:58:51.592Z,2.75
2023-05-06T15:02:15.677Z,3.17
2023-05-06T15:05:42.027Z,2.83
2023-05-06T15:09:04.255Z,5.00
2023-05-06T15:12:28.616Z,4.32
2023-05-06T15:15:55.293Z,4.10
2023-05-06T15:19:16.907Z,2.90
2023-05-06T15:22:39.712Z,6.20
2023-05-06T15:26:01.504Z,4.80
2023-05-06T15:29:28.628Z,3.33
2023-05-06T15:32:50.590Z,3.93
2023-05-06T15:36:16.981Z,3.83
2023-05-06T15:39:38.747Z,3.28
2023-05-06T15:43:08.443Z,2.45
2023-05-06T15:46:31.673Z,3.45
2023-05-06T15:49:54.981Z,3.92
2023-05-06T15:53:18.636Z,3.00
2023-05-06T15:56:41.375Z,3.45
2023-05-06T16:00:05.505Z,3.40
2023-05-06T16:03:27.345Z,4.45
2023-05-06T16:06:52.184Z,3.88
2023-05-06T16:10:13.883Z,2.63
2023-05-06T16:13:35.488Z,2.78
2023-05-06T16:16:58.271Z,4.15
2023-05-06T16:20:22.544Z,3.20
2023-05-06T16:23:46.615Z,3.53
2023-05-06T16:27:08.254Z,3.33
2023-05-06T16:30:32.069Z,3.45
2023-05-06T16:33:56.533Z,2.95
2023-05-06T16:37:20.771Z,3.17
2023-05-06T16:40:51.049Z,3.67
2023-05-06T16:44:12.662Z,2.28
2023-05-06T16:47:34.387Z,5.53
2023-05-06T16:51:01.224Z,2.90
2023-05-06T16:54:22.849Z,2.40
2023-05-06T16:57:46.739Z,4.32
2023-05-06T17:01:08.560Z,2.30
2023-05-06T17:04:30.370Z,2.47
2023-05-06T17:07:56.474Z,3.22
2023-05-06T17:11:18.129Z,3.97
2023-05-06T17:14:41.494Z,3.28
2023-05-06T17:18:05.631Z,8.88
2023-05-06T17:21:29.574Z,3.83
2023-05-06T17:24:51.545Z,3.42
2023-05-06T17:28:16.823Z,2.80
2023-05-06T17:31:39.674Z,5.70
2023-05-06T17:35:01.353Z,3.03
2023-05-06T17:38:23.073Z,4.38
2023-05-06T17:41:47.030Z,3.05
2023-05-06T17:45:09.080Z,4.95
2023-05-06T17:48:33.634Z,3.97
2023-05-06T17:51:56.076Z,4.03
2023-05-06T17:55:17.911Z,3.22
2023-05-06T17:58:41.893Z,3.30
2023-05-06T18:02:08.507Z,3.22
2023-05-06T18:05:32.472Z,3.50
2023-05-06T18:08:54.100Z,3.20
2023-05-06T18:12:15.688Z,4.85
2023-05-06T18:15:39.681Z,4.30
2023-05-06T18:19:03.383Z,3.08
2023-05-06T18:22:28.047Z,4.07
2023-05-06T18:25:52.049Z,3.65
2023-05-06T18:29:18.381Z,4.82
2023-05-06T18:32:42.497Z,4.28
2023-05-06T18:36:06.607Z,4.70
2023-05-06T18:39:30.513Z,4.78
2023-05-06T18:42:53.175Z,4.32
2023-05-06T18:46:14.847Z,4.85
2023-05-06T18:49:39.191Z,4.53
2023-05-06T18:53:00.815Z,6.47
2023-05-06T18:56:22.463Z,5.05
2023-05-06T18:59:44.018Z,6.95
2023-05-06T19:03:05.733Z,4.90
2023-05-06T19:06:27.343Z,6.43
2023-05-06T19:09:49.042Z,4.78
2023-05-06T19:13:10.796Z,6.45
2023-05-06T19:16:35.276Z,6.05
2023-05-06T19:19:59.130Z,5.28
2023-05-06T19:23:22.845Z,4.55
2023-05-06T19:26:46.945Z,6.82
2023-05-06T19:30:11.570Z,4.72
2023-05-06T19:33:36.097Z,5.20
2023-05-06T19:36:58.556Z,5.22
2023-05-06T19:40:22.813Z,4.18
2023-05-06T19:43:46.977Z,4.63
2023-05-06T19:47:13.425Z,3.95
2023-05-06T19:50:37.276Z,4.35
2023-05-06T19:54:01.147Z,3.72
2023-05-06T19:57:22.799Z,4.13
2023-05-06T20:00:49.632Z,4.32
2023-05-06T20:04:12.139Z,5.68
2023-05-06T20:07:33.923Z,6.00
2023-05-06T20:10:57.894Z,4.32
2023-05-06T20:14:19.474Z,5.35
2023-05-06T20:17:41.177Z,5.05
2023-05-06T20:21:04.978Z,4.45
2023-05-06T20:24:31.030Z,4.13
2023-05-06T20:27:55.270Z,4.68
2023-05-06T20:31:19.216Z,5.90
2023-05-06T20:34:40.819Z,4.78
2023-05-06T20:38:03.106Z,6.47
2023-05-06T20:41:24.723Z,5.45
2023-05-06T20:44:46.370Z,6.63
2023-05-06T20:48:12.344Z,7.50
2023-05-06T20:51:35.441Z,7.93
2023-05-06T20:55:01.849Z,5.03
2023-05-06T20:58:28.573Z,4.63
2023-05-06T21:01:52.476Z,6.07
2023-05-06T21:05:16.610Z,8.27
2023-05-06T21:08:38.201Z,6.15
2023-05-06T21:12:02.542Z,9.00
2023-05-06T21:15:24.102Z,5.63
2023-05-06T21:18:48.069Z,4.63
2023-05-06T21:22:11.107Z,6.05
2023-05-06T21:25:32.882Z,6.13
2023-05-06T21:28:54.429Z,6.18
2023-05-06T21:32:16.079Z,7.53
2023-05-06T21:35:37.979Z,6.90
2023-05-06T21:39:08.018Z,6.10
2023-05-06T21:42:34.417Z,5.15
2023-05-06T21:45:58.476Z,5.10
2023-05-06T21:49:25.409Z,6.47
2023-05-06T21:52:49.379Z,6.65
2023-05-06T21:56:10.967Z,8.15
2023-05-06T21:59:32.566Z,6.35
2023-05-06T22:02:54.713Z,7.32
2023-05-06T22:06:16.629Z,8.00
2023-05-06T22:09:39.427Z,7.47
2023-05-06T22:13:03.833Z,6.97
2023-05-06T22:16:25.669Z,5.90
2023-05-06T22:19:49.718Z,5.15
2023-05-06T22:23:16.451Z,6.93
2023-05-06T22:26:40.676Z,6.93
2023-05-06T22:30:03.614Z,6.72
2023-05-06T22:33:26.474Z,8.10
2023-05-06T22:36:51.067Z,7.10
2023-05-06T22:40:13.290Z,6.53
2023-05-06T22:43:37.170Z,9.38
2023-05-06T22:46:58.819Z,10.55
2023-05-06T22:50:25.462Z,12.07
2023-05-06T22:53:47.679Z,9.98
2023-05-06T22:57:09.308Z,10.98
2023-05-06T23:00:31.221Z,7.72
2023-05-06T23:03:55.294Z,10.13
2023-05-06T23:07:16.933Z,6.85
2023-05-06T23:10:38.537Z,5.32
2023-05-06T23:14:02.675Z,7.47
2023-05-06T23:17:26.382Z,7.88
2023-05-06T23:20:48.086Z,7.60
2023-05-06T23:24:10.210Z,6.25
2023-05-06T23:27:31.780Z,7.63
2023-05-06T23:30:55.861Z,8.88
2023-05-06T23:34:22.972Z,7.13
2023-05-06T23:37:44.575Z,7.30
2023-05-06T23:41:06.550Z,7.20
2023-05-06T23:44:28.089Z,7.30
2023-05-06T23:47:49.756Z,6.20
2023-05-06T23:51:11.405Z,7.30
2023-05-06T23:54:33.006Z,6.40
2023-05-06T23:57:54.762Z,7.07
